sensor_id;sensor_type;location;lat;lon;timestamp;P1;durP1;ratioP1;P2;durP2;ratioP2
56517;SDS011;42419;48.760;2.322;2023-08-21T00:02:20;5.10;;;2.00;;
56517;SDS011;42419;48.760;2.322;2023-08-21T00:04:46;5.30;;;2.23;;
56517;SDS011;42419;48.760;2.322;2023-08-21T00:07:11;5.27;;;1.80;;
56517;SDS011;42419;48.760;2.322;2023-08-21T00:09:39;6.60;;;2.43;;
56517;SDS011;42419;48.760;2.322;2023-08-21T00:12:07;6.13;;;2.00;;
56517;SDS011;42419;48.760;2.322;2023-08-21T00:14:33;4.30;;;2.10;;
56517;SDS011;42419;48.760;2.322;2023-08-21T00:16:58;4.93;;;2.30;;
56517;SDS011;42419;48.760;2.322;2023-08-21T00:19:23;5.13;;;1.80;;
56517;SDS011;42419;48.760;2.322;2023-08-21T00:21:49;5.13;;;1.80;;
56517;SDS011;42419;48.760;2.322;2023-08-21T00:24:14;5.30;;;2.13;;
56517;SDS011;42419;48.760;2.322;2023-08-21T00:26:40;4.40;;;2.07;;
56517;SDS011;42419;48.760;2.322;2023-08-21T00:29:06;4.43;;;2.00;;
56517;SDS011;42419;48.760;2.322;2023-08-21T00:31:31;5.27;;;2.10;;
56517;SDS011;42419;48.760;2.322;2023-08-21T00:33:56;6.10;;;2.50;;
56517;SDS011;42419;48.760;2.322;2023-08-21T00:36:22;3.73;;;2.00;;
56517;SDS011;42419;48.760;2.322;2023-08-21T00:38:47;5.43;;;1.97;;
56517;SDS011;42419;48.760;2.322;2023-08-21T00:41:13;4.53;;;1.67;;
56517;SDS011;42419;48.760;2.322;2023-08-21T00:43:39;3.83;;;2.13;;
56517;SDS011;42419;48.760;2.322;2023-08-21T00:46:04;3.93;;;2.10;;
56517;SDS011;42419;48.760;2.322;2023-08-21T00:48:30;4.53;;;2.07;;
56517;SDS011;42419;48.760;2.322;2023-08-21T00:50:56;2.83;;;1.80;;
56517;SDS011;42419;48.760;2.322;2023-08-21T00:53:22;2.90;;;1.87;;
56517;SDS011;42419;48.760;2.322;2023-08-21T00:55:48;4.77;;;2.30;;
56517;SDS011;42419;48.760;2.322;2023-08-21T00:58:17;3.40;;;1.80;;
56517;SDS011;42419;48.760;2.322;2023-08-21T01:00:44;5.10;;;2.07;;
56517;SDS011;42419;48.760;2.322;2023-08-21T01:03:12;4.43;;;1.60;;
56517;SDS011;42419;48.760;2.322;2023-08-21T01:05:37;3.23;;;1.50;;
56517;SDS011;42419;48.760;2.322;2023-08-21T01:08:25;3.57;;;1.97;;
56517;SDS011;42419;48.760;2.322;2023-08-21T01:11:08;7.20;;;2.20;;
56517;SDS011;42419;48.760;2.322;2023-08-21T01:16:31;5.07;;;2.00;;
56517;SDS011;42419;48.760;2.322;2023-08-21T01:18:57;3.43;;;1.97;;
56517;SDS011;42419;48.760;2.322;2023-08-21T01:21:24;5.43;;;2.10;;
56517;SDS011;42419;48.760;2.322;2023-08-21T01:23:50;5.10;;;1.83;;
56517;SDS011;42419;48.760;2.322;2023-08-21T01:26:15;2.30;;;1.70;;
56517;SDS011;42419;48.760;2.322;2023-08-21T01:28:41;6.20;;;2.60;;
56517;SDS011;42419;48.760;2.322;2023-08-21T01:31:19;5.30;;;1.93;;
56517;SDS011;42419;48.760;2.322;2023-08-21T01:33:53;3.80;;;2.00;;
56517;SDS011;42419;48.760;2.322;2023-08-21T01:36:21;5.87;;;2.20;;
56517;SDS011;42419;48.760;2.322;2023-08-21T01:38:47;4.37;;;1.87;;
56517;SDS011;42419;48.760;2.322;2023-08-21T01:41:13;4.30;;;1.83;;
56517;SDS011;42419;48.760;2.322;2023-08-21T01:43:39;7.83;;;1.93;;
56517;SDS011;42419;48.760;2.322;2023-08-21T01:46:04;8.27;;;2.10;;
56517;SDS011;42419;48.760;2.322;2023-08-21T01:48:29;5.87;;;2.40;;
56517;SDS011;42419;48.760;2.322;2023-08-21T01:50:55;6.97;;;2.23;;
56517;SDS011;42419;48.760;2.322;2023-08-21T01:53:20;6.13;;;2.07;;
56517;SDS011;42419;48.760;2.322;2023-08-21T01:55:45;6.60;;;1.70;;
56517;SDS011;42419;48.760;2.322;2023-08-21T01:58:11;2.60;;;1.60;;
56517;SDS011;42419;48.760;2.322;2023-08-21T02:00:36;4.67;;;2.00;;
56517;SDS011;42419;48.760;2.322;2023-08-21T02:03:01;6.20;;;1.60;;
56517;SDS011;42419;48.760;2.322;2023-08-21T02:05:26;4.70;;;2.00;;
56517;SDS011;42419;48.760;2.322;2023-08-21T02:07:52;7.00;;;2.07;;
56517;SDS011;42419;48.760;2.322;2023-08-21T02:10:17;6.00;;;1.90;;
56517;SDS011;42419;48.760;2.322;2023-08-21T02:12:42;3.73;;;1.70;;
56517;SDS011;42419;48.760;2.322;2023-08-21T02:15:08;3.13;;;1.60;;
56517;SDS011;42419;48.760;2.322;2023-08-21T02:17:35;3.40;;;1.73;;
56517;SDS011;42419;48.760;2.322;2023-08-21T02:20:00;4.30;;;2.20;;
56517;SDS011;42419;48.760;2.322;2023-08-21T02:22:25;3.83;;;1.90;;
56517;SDS011;42419;48.760;2.322;2023-08-21T02:24:51;4.67;;;1.93;;
56517;SDS011;42419;48.760;2.322;2023-08-21T02:27:16;6.63;;;2.17;;
56517;SDS011;42419;48.760;2.322;2023-08-21T02:29:41;4.27;;;2.10;;
56517;SDS011;42419;48.760;2.322;2023-08-21T02:32:07;3.60;;;2.10;;
56517;SDS011;42419;48.760;2.322;2023-08-21T02:34:32;4.77;;;2.03;;
56517;SDS011;42419;48.760;2.322;2023-08-21T02:36:57;4.23;;;2.10;;
56517;SDS011;42419;48.760;2.322;2023-08-21T02:39:23;4.70;;;1.77;;
56517;SDS011;42419;48.760;2.322;2023-08-21T02:41:48;3.53;;;1.90;;
56517;SDS011;42419;48.760;2.322;2023-08-21T02:44:14;3.73;;;1.80;;
56517;SDS011;42419;48.760;2.322;2023-08-21T02:46:39;3.63;;;1.83;;
56517;SDS011;42419;48.760;2.322;2023-08-21T02:49:04;3.53;;;2.10;;
56517;SDS011;42419;48.760;2.322;2023-08-21T02:51:30;4.80;;;1.73;;
56517;SDS011;42419;48.760;2.322;2023-08-21T02:53:55;3.47;;;1.87;;
56517;SDS011;42419;48.760;2.322;2023-08-21T02:56:21;3.60;;;1.90;;
56517;SDS011;42419;48.760;2.322;2023-08-21T02:58:46;3.93;;;1.90;;
56517;SDS011;42419;48.760;2.322;2023-08-21T03:01:11;2.87;;;1.50;;
56517;SDS011;42419;48.760;2.322;2023-08-21T03:03:36;3.10;;;1.73;;
56517;SDS011;42419;48.760;2.322;2023-08-21T03:06:02;4.37;;;2.17;;
56517;SDS011;42419;48.760;2.322;2023-08-21T03:08:27;4.90;;;2.30;;
56517;SDS011;42419;48.760;2.322;2023-08-21T03:10:53;3.80;;;1.70;;
56517;SDS011;42419;48.760;2.322;2023-08-21T03:13:18;4.63;;;2.00;;
56517;SDS011;42419;48.760;2.322;2023-08-21T03:15:46;3.10;;;1.73;;
56517;SDS011;42419;48.760;2.322;2023-08-21T03:18:11;7.00;;;2.10;;
56517;SDS011;42419;48.760;2.322;2023-08-21T03:20:37;4.03;;;1.90;;
56517;SDS011;42419;48.760;2.322;2023-08-21T03:23:02;4.73;;;2.00;;
56517;SDS011;42419;48.760;2.322;2023-08-21T03:25:28;4.17;;;1.80;;
56517;SDS011;42419;48.760;2.322;2023-08-21T03:27:53;6.37;;;2.03;;
56517;SDS011;42419;48.760;2.322;2023-08-21T03:30:19;5.30;;;1.83;;
56517;SDS011;42419;48.760;2.322;2023-08-21T03:32:44;5.00;;;1.90;;
56517;SDS011;42419;48.760;2.322;2023-08-21T03:35:09;6.87;;;2.40;;
56517;SDS011;42419;48.760;2.322;2023-08-21T03:37:35;5.20;;;2.13;;
56517;SDS011;42419;48.760;2.322;2023-08-21T03:40:02;6.03;;;2.30;;
56517;SDS011;42419;48.760;2.322;2023-08-21T03:42:27;4.60;;;2.23;;
56517;SDS011;42419;48.760;2.322;2023-08-21T03:44:53;4.33;;;2.13;;
56517;SDS011;42419;48.760;2.322;2023-08-21T03:47:18;5.53;;;2.30;;
56517;SDS011;42419;48.760;2.322;2023-08-21T03:49:43;5.87;;;2.63;;
56517;SDS011;42419;48.760;2.322;2023-08-21T03:52:09;3.97;;;2.20;;
56517;SDS011;42419;48.760;2.322;2023-08-21T03:54:34;5.73;;;2.17;;
56517;SDS011;42419;48.760;2.322;2023-08-21T03:56:59;5.37;;;2.60;;
56517;SDS011;42419;48.760;2.322;2023-08-21T03:59:25;9.03;;;2.57;;
56517;SDS011;42419;48.760;2.322;2023-08-21T04:01:52;4.23;;;2.53;;
56517;SDS011;42419;48.760;2.322;2023-08-21T04:04:18;3.00;;;2.40;;
56517;SDS011;42419;48.760;2.322;2023-08-21T04:06:43;6.23;;;2.80;;
56517;SDS011;42419;48.760;2.322;2023-08-21T04:09:08;6.60;;;3.00;;
56517;SDS011;42419;48.760;2.322;2023-08-21T04:11:34;5.90;;;2.70;;
56517;SDS011;42419;48.760;2.322;2023-08-21T04:14:00;6.13;;;3.20;;
56517;SDS011;42419;48.760;2.322;2023-08-21T04:16:26;6.43;;;3.27;;
56517;SDS011;42419;48.760;2.322;2023-08-21T04:18:52;5.13;;;3.30;;
56517;SDS011;42419;48.760;2.322;2023-08-21T04:21:18;4.80;;;2.60;;
56517;SDS011;42419;48.760;2.322;2023-08-21T04:23:44;5.70;;;3.00;;
56517;SDS011;42419;48.760;2.322;2023-08-21T04:26:11;5.90;;;3.43;;
56517;SDS011;42419;48.760;2.322;2023-08-21T04:28:36;7.03;;;2.97;;
56517;SDS011;42419;48.760;2.322;2023-08-21T04:31:04;5.20;;;2.83;;
56517;SDS011;42419;48.760;2.322;2023-08-21T04:33:30;9.50;;;3.60;;
56517;SDS011;42419;48.760;2.322;2023-08-21T04:35:55;4.10;;;3.27;;
56517;SDS011;42419;48.760;2.322;2023-08-21T04:38:21;5.43;;;3.20;;
56517;SDS011;42419;48.760;2.322;2023-08-21T04:40:46;5.13;;;2.60;;
56517;SDS011;42419;48.760;2.322;2023-08-21T04:43:12;6.20;;;2.93;;
56517;SDS011;42419;48.760;2.322;2023-08-21T04:45:37;5.77;;;2.87;;
56517;SDS011;42419;48.760;2.322;2023-08-21T04:48:03;5.70;;;2.77;;
56517;SDS011;42419;48.760;2.322;2023-08-21T04:50:29;6.27;;;3.00;;
56517;SDS011;42419;48.760;2.322;2023-08-21T04:52:55;9.17;;;2.60;;
56517;SDS011;42419;48.760;2.322;2023-08-21T04:55:20;5.20;;;2.60;;
56517;SDS011;42419;48.760;2.322;2023-08-21T04:57:45;5.97;;;2.53;;
56517;SDS011;42419;48.760;2.322;2023-08-21T05:00:11;4.80;;;2.23;;
56517;SDS011;42419;48.760;2.322;2023-08-21T05:02:37;4.67;;;2.30;;
56517;SDS011;42419;48.760;2.322;2023-08-21T05:05:02;3.77;;;2.20;;
56517;SDS011;42419;48.760;2.322;2023-08-21T05:07:28;4.30;;;2.60;;
56517;SDS011;42419;48.760;2.322;2023-08-21T05:09:53;5.67;;;2.73;;
56517;SDS011;42419;48.760;2.322;2023-08-21T05:12:18;7.43;;;2.90;;
56517;SDS011;42419;48.760;2.322;2023-08-21T05:14:44;5.50;;;4.87;;
56517;SDS011;42419;48.760;2.322;2023-08-21T05:17:09;8.07;;;4.67;;
56517;SDS011;42419;48.760;2.322;2023-08-21T05:19:34;9.57;;;4.07;;
56517;SDS011;42419;48.760;2.322;2023-08-21T05:22:00;6.30;;;3.97;;
56517;SDS011;42419;48.760;2.322;2023-08-21T05:24:25;7.30;;;3.87;;
56517;SDS011;42419;48.760;2.322;2023-08-21T05:26:50;8.03;;;4.07;;
56517;SDS011;42419;48.760;2.322;2023-08-21T05:29:15;8.33;;;4.27;;
56517;SDS011;42419;48.760;2.322;2023-08-21T05:31:41;5.73;;;4.70;;
56517;SDS011;42419;48.760;2.322;2023-08-21T05:34:07;5.90;;;4.00;;
56517;SDS011;42419;48.760;2.322;2023-08-21T05:36:35;9.90;;;4.00;;
56517;SDS011;42419;48.760;2.322;2023-08-21T05:39:02;4.97;;;2.90;;
56517;SDS011;42419;48.760;2.322;2023-08-21T05:41:30;6.33;;;2.47;;
56517;SDS011;42419;48.760;2.322;2023-08-21T05:43:57;4.80;;;2.97;;
56517;SDS011;42419;48.760;2.322;2023-08-21T05:46:22;5.90;;;3.77;;
56517;SDS011;42419;48.760;2.322;2023-08-21T05:48:48;5.67;;;2.93;;
56517;SDS011;42419;48.760;2.322;2023-08-21T05:51:13;6.40;;;2.87;;
56517;SDS011;42419;48.760;2.322;2023-08-21T05:53:39;3.90;;;2.33;;
56517;SDS011;42419;48.760;2.322;2023-08-21T05:56:04;8.20;;;3.50;;
56517;SDS011;42419;48.760;2.322;2023-08-21T05:58:29;5.47;;;3.40;;
56517;SDS011;42419;48.760;2.322;2023-08-21T06:00:56;6.17;;;3.30;;
56517;SDS011;42419;48.760;2.322;2023-08-21T06:03:22;8.50;;;3.43;;
56517;SDS011;42419;48.760;2.322;2023-08-21T06:05:47;5.47;;;2.70;;
56517;SDS011;42419;48.760;2.322;2023-08-21T06:08:12;4.70;;;2.40;;
56517;SDS011;42419;48.760;2.322;2023-08-21T06:10:38;5.07;;;2.80;;
56517;SDS011;42419;48.760;2.322;2023-08-21T06:13:03;4.30;;;2.33;;
56517;SDS011;42419;48.760;2.322;2023-08-21T06:15:31;3.50;;;2.00;;
56517;SDS011;42419;48.760;2.322;2023-08-21T06:17:58;8.00;;;2.47;;
56517;SDS011;42419;48.760;2.322;2023-08-21T06:20:24;4.07;;;2.07;;
56517;SDS011;42419;48.760;2.322;2023-08-21T06:22:49;7.13;;;2.50;;
56517;SDS011;42419;48.760;2.322;2023-08-21T06:25:14;4.33;;;2.90;;
56517;SDS011;42419;48.760;2.322;2023-08-21T06:27:40;6.97;;;2.33;;
56517;SDS011;42419;48.760;2.322;2023-08-21T06:30:05;5.77;;;2.50;;
56517;SDS011;42419;48.760;2.322;2023-08-21T06:32:31;7.20;;;2.20;;
56517;SDS011;42419;48.760;2.322;2023-08-21T06:34:56;6.10;;;2.37;;
56517;SDS011;42419;48.760;2.322;2023-08-21T06:37:22;6.17;;;2.60;;
56517;SDS011;42419;48.760;2.322;2023-08-21T06:39:47;4.40;;;2.50;;
56517;SDS011;42419;48.760;2.322;2023-08-21T06:42:13;9.87;;;2.70;;
56517;SDS011;42419;48.760;2.322;2023-08-21T06:44:39;5.20;;;2.73;;
56517;SDS011;42419;48.760;2.322;2023-08-21T06:47:05;6.57;;;2.10;;
56517;SDS011;42419;48.760;2.322;2023-08-21T06:49:30;9.20;;;2.67;;
56517;SDS011;42419;48.760;2.322;2023-08-21T06:51:56;7.90;;;2.43;;
56517;SDS011;42419;48.760;2.322;2023-08-21T06:54:21;4.77;;;2.40;;
56517;SDS011;42419;48.760;2.322;2023-08-21T06:56:46;6.17;;;2.40;;
56517;SDS011;42419;48.760;2.322;2023-08-21T06:59:12;6.00;;;2.77;;
56517;SDS011;42419;48.760;2.322;2023-08-21T07:01:37;5.90;;;2.20;;
56517;SDS011;42419;48.760;2.322;2023-08-21T07:04:02;7.97;;;2.20;;
56517;SDS011;42419;48.760;2.322;2023-08-21T07:06:28;2.50;;;1.53;;
56517;SDS011;42419;48.760;2.322;2023-08-21T07:08:54;4.03;;;1.80;;
56517;SDS011;42419;48.760;2.322;2023-08-21T07:11:19;2.93;;;1.87;;
56517;SDS011;42419;48.760;2.322;2023-08-21T07:13:45;5.70;;;2.20;;
56517;SDS011;42419;48.760;2.322;2023-08-21T07:16:10;3.43;;;1.70;;
56517;SDS011;42419;48.760;2.322;2023-08-21T07:18:35;5.33;;;2.00;;
56517;SDS011;42419;48.760;2.322;2023-08-21T07:21:03;6.60;;;1.83;;
56517;SDS011;42419;48.760;2.322;2023-08-21T07:23:29;6.33;;;2.00;;
56517;SDS011;42419;48.760;2.322;2023-08-21T07:25:55;2.77;;;1.60;;
56517;SDS011;42419;48.760;2.322;2023-08-21T07:28:20;5.27;;;2.20;;
56517;SDS011;42419;48.760;2.322;2023-08-21T07:30:46;2.60;;;1.43;;
56517;SDS011;42419;48.760;2.322;2023-08-21T07:33:12;5.80;;;2.00;;
56517;SDS011;42419;48.760;2.322;2023-08-21T07:35:37;4.40;;;1.90;;
56517;SDS011;42419;48.760;2.322;2023-08-21T07:38:02;4.30;;;1.80;;
56517;SDS011;42419;48.760;2.322;2023-08-21T07:40:28;3.37;;;1.50;;
56517;SDS011;42419;48.760;2.322;2023-08-21T07:42:53;3.93;;;1.93;;
56517;SDS011;42419;48.760;2.322;2023-08-21T07:45:19;3.67;;;1.50;;
56517;SDS011;42419;48.760;2.322;2023-08-21T07:47:44;3.10;;;1.70;;
56517;SDS011;42419;48.760;2.322;2023-08-21T07:50:09;4.00;;;2.50;;
56517;SDS011;42419;48.760;2.322;2023-08-21T07:52:35;4.33;;;1.70;;
56517;SDS011;42419;48.760;2.322;2023-08-21T07:55:01;2.60;;;1.80;;
56517;SDS011;42419;48.760;2.322;2023-08-21T07:57:29;4.63;;;2.00;;
56517;SDS011;42419;48.760;2.322;2023-08-21T07:59:55;5.60;;;1.50;;
56517;SDS011;42419;48.760;2.322;2023-08-21T08:02:20;2.73;;;1.50;;
56517;SDS011;42419;48.760;2.322;2023-08-21T08:04:46;3.20;;;1.60;;
56517;SDS011;42419;48.760;2.322;2023-08-21T08:07:12;2.67;;;1.67;;
56517;SDS011;42419;48.760;2.322;2023-08-21T08:09:37;3.47;;;1.93;;
56517;SDS011;42419;48.760;2.322;2023-08-21T08:12:03;7.33;;;1.63;;
56517;SDS011;42419;48.760;2.322;2023-08-21T08:14:28;2.47;;;1.47;;
56517;SDS011;42419;48.760;2.322;2023-08-21T08:16:54;4.73;;;1.63;;
56517;SDS011;42419;48.760;2.322;2023-08-21T08:19:19;3.13;;;1.97;;
56517;SDS011;42419;48.760;2.322;2023-08-21T08:21:44;2.87;;;1.50;;
56517;SDS011;42419;48.760;2.322;2023-08-21T08:24:10;3.10;;;1.50;;
56517;SDS011;42419;48.760;2.322;2023-08-21T08:26:35;3.60;;;1.93;;
56517;SDS011;42419;48.760;2.322;2023-08-21T08:29:00;2.73;;;1.40;;
56517;SDS011;42419;48.760;2.322;2023-08-21T08:31:26;3.80;;;1.57;;
56517;SDS011;42419;48.760;2.322;2023-08-21T08:33:52;2.70;;;1.60;;
56517;SDS011;42419;48.760;2.322;2023-08-21T08:36:18;3.97;;;1.60;;
56517;SDS011;42419;48.760;2.322;2023-08-21T08:38:44;2.93;;;1.80;;
56517;SDS011;42419;48.760;2.322;2023-08-21T08:41:14;2.20;;;1.77;;
56517;SDS011;42419;48.760;2.322;2023-08-21T08:43:56;5.53;;;1.70;;
56517;SDS011;42419;48.760;2.322;2023-08-21T08:46:23;1.87;;;1.67;;
56517;SDS011;42419;48.760;2.322;2023-08-21T08:48:50;2.10;;;1.50;;
56517;SDS011;42419;48.760;2.322;2023-08-21T08:51:19;2.40;;;1.50;;
56517;SDS011;42419;48.760;2.322;2023-08-21T08:53:44;4.37;;;2.17;;
56517;SDS011;42419;48.760;2.322;2023-08-21T08:56:09;3.10;;;1.57;;
56517;SDS011;42419;48.760;2.322;2023-08-21T08:58:35;2.23;;;1.50;;
56517;SDS011;42419;48.760;2.322;2023-08-21T09:01:00;3.93;;;1.70;;
56517;SDS011;42419;48.760;2.322;2023-08-21T09:03:25;2.43;;;1.40;;
56517;SDS011;42419;48.760;2.322;2023-08-21T09:05:51;2.90;;;1.60;;
56517;SDS011;42419;48.760;2.322;2023-08-21T09:08:16;3.60;;;1.90;;
56517;SDS011;42419;48.760;2.322;2023-08-21T09:10:42;3.40;;;2.10;;
56517;SDS011;42419;48.760;2.322;2023-08-21T09:13:26;4.60;;;1.90;;
56517;SDS011;42419;48.760;2.322;2023-08-21T09:15:55;2.20;;;1.47;;
56517;SDS011;42419;48.760;2.322;2023-08-21T09:18:21;3.60;;;2.10;;
56517;SDS011;42419;48.760;2.322;2023-08-21T09:20:46;5.00;;;1.93;;
56517;SDS011;42419;48.760;2.322;2023-08-21T09:23:15;3.33;;;1.60;;
56517;SDS011;42419;48.760;2.322;2023-08-21T09:25:43;6.90;;;2.23;;
56517;SDS011;42419;48.760;2.322;2023-08-21T09:28:13;2.60;;;1.80;;
56517;SDS011;42419;48.760;2.322;2023-08-21T09:30:45;3.37;;;1.60;;
56517;SDS011;42419;48.760;2.322;2023-08-21T09:33:18;4.20;;;1.90;;
56517;SDS011;42419;48.760;2.322;2023-08-21T09:35:48;5.70;;;1.60;;
56517;SDS011;42419;48.760;2.322;2023-08-21T09:38:14;2.53;;;1.60;;
56517;SDS011;42419;48.760;2.322;2023-08-21T09:40:40;2.60;;;1.67;;
56517;SDS011;42419;48.760;2.322;2023-08-21T09:43:07;3.13;;;2.10;;
56517;SDS011;42419;48.760;2.322;2023-08-21T09:45:34;4.50;;;2.00;;
56517;SDS011;42419;48.760;2.322;2023-08-21T09:47:59;3.93;;;2.30;;
56517;SDS011;42419;48.760;2.322;2023-08-21T09:50:25;3.93;;;2.20;;
56517;SDS011;42419;48.760;2.322;2023-08-21T09:52:53;3.07;;;2.10;;
56517;SDS011;42419;48.760;2.322;2023-08-21T09:55:19;5.30;;;2.50;;
56517;SDS011;42419;48.760;2.322;2023-08-21T09:57:45;3.30;;;2.27;;
56517;SDS011;42419;48.760;2.322;2023-08-21T10:00:10;2.97;;;2.00;;
56517;SDS011;42419;48.760;2.322;2023-08-21T10:02:43;4.20;;;2.43;;
56517;SDS011;42419;48.760;2.322;2023-08-21T10:05:18;3.60;;;2.30;;
56517;SDS011;42419;48.760;2.322;2023-08-21T10:07:44;5.00;;;2.33;;
56517;SDS011;42419;48.760;2.322;2023-08-21T10:10:13;4.03;;;2.10;;
56517;SDS011;42419;48.760;2.322;2023-08-21T10:12:38;4.73;;;2.43;;
56517;SDS011;42419;48.760;2.322;2023-08-21T10:15:05;3.00;;;2.00;;
56517;SDS011;42419;48.760;2.322;2023-08-21T10:17:32;5.60;;;2.40;;
56517;SDS011;42419;48.760;2.322;2023-08-21T10:20:04;5.23;;;2.13;;
56517;SDS011;42419;48.760;2.322;2023-08-21T10:22:47;4.37;;;2.27;;
56517;SDS011;42419;48.760;2.322;2023-08-21T10:25:14;4.30;;;2.10;;
56517;SDS011;42419;48.760;2.322;2023-08-21T10:27:57;2.80;;;2.00;;
56517;SDS011;42419;48.760;2.322;2023-08-21T10:30:28;2.60;;;1.60;;
56517;SDS011;42419;48.760;2.322;2023-08-21T10:32:55;5.23;;;1.80;;
56517;SDS011;42419;48.760;2.322;2023-08-21T10:35:29;3.13;;;1.90;;
56517;SDS011;42419;48.760;2.322;2023-08-21T10:38:05;2.93;;;2.27;;
56517;SDS011;42419;48.760;2.322;2023-08-21T10:40:35;2.80;;;1.90;;
56517;SDS011;42419;48.760;2.322;2023-08-21T10:43:01;7.57;;;2.20;;
56517;SDS011;42419;48.760;2.322;2023-08-21T10:45:27;6.30;;;2.20;;
56517;SDS011;42419;48.760;2.322;2023-08-21T10:47:55;4.83;;;1.70;;
56517;SDS011;42419;48.760;2.322;2023-08-21T10:50:22;4.27;;;1.77;;
56517;SDS011;42419;48.760;2.322;2023-08-21T10:52:47;3.53;;;1.60;;
56517;SDS011;42419;48.760;2.322;2023-08-21T10:55:16;4.37;;;2.00;;
56517;SDS011;42419;48.760;2.322;2023-08-21T10:57:43;10.47;;;2.27;;
56517;SDS011;42419;48.760;2.322;2023-08-21T11:00:11;5.53;;;1.77;;
56517;SDS011;42419;48.760;2.322;2023-08-21T11:02:39;5.90;;;2.10;;
56517;SDS011;42419;48.760;2.322;2023-08-21T11:05:07;5.03;;;2.00;;
56517;SDS011;42419;48.760;2.322;2023-08-21T11:07:42;5.67;;;2.17;;
56517;SDS011;42419;48.760;2.322;2023-08-21T11:10:13;4.30;;;2.00;;
56517;SDS011;42419;48.760;2.322;2023-08-21T11:12:55;6.30;;;2.20;;
56517;SDS011;42419;48.760;2.322;2023-08-21T11:15:21;3.27;;;2.23;;
56517;SDS011;42419;48.760;2.322;2023-08-21T11:18:05;5.63;;;2.43;;
56517;SDS011;42419;48.760;2.322;2023-08-21T11:20:35;4.97;;;2.20;;
56517;SDS011;42419;48.760;2.322;2023-08-21T11:23:04;3.07;;;1.80;;
56517;SDS011;42419;48.760;2.322;2023-08-21T11:25:34;2.50;;;1.50;;
56517;SDS011;42419;48.760;2.322;2023-08-21T11:28:02;5.00;;;2.30;;
56517;SDS011;42419;48.760;2.322;2023-08-21T11:30:30;4.50;;;2.10;;
56517;SDS011;42419;48.760;2.322;2023-08-21T11:35:31;3.40;;;2.07;;
56517;SDS011;42419;48.760;2.322;2023-08-21T11:37:56;4.07;;;2.40;;
56517;SDS011;42419;48.760;2.322;2023-08-21T11:40:21;5.30;;;2.20;;
56517;SDS011;42419;48.760;2.322;2023-08-21T11:42:47;3.13;;;2.00;;
56517;SDS011;42419;48.760;2.322;2023-08-21T11:45:17;6.17;;;2.20;;
56517;SDS011;42419;48.760;2.322;2023-08-21T11:47:45;3.10;;;1.73;;
56517;SDS011;42419;48.760;2.322;2023-08-21T11:50:10;5.00;;;2.30;;
56517;SDS011;42419;48.760;2.322;2023-08-21T11:52:38;3.47;;;2.53;;
56517;SDS011;42419;48.760;2.322;2023-08-21T11:55:07;2.37;;;1.60;;
56517;SDS011;42419;48.760;2.322;2023-08-21T11:57:34;5.43;;;1.73;;
56517;SDS011;42419;48.760;2.322;2023-08-21T11:59:59;8.23;;;2.20;;
56517;SDS011;42419;48.760;2.322;2023-08-21T12:02:25;2.70;;;1.80;;
56517;SDS011;42419;48.760;2.322;2023-08-21T12:04:53;2.83;;;1.70;;
56517;SDS011;42419;48.760;2.322;2023-08-21T12:07:31;4.17;;;1.90;;
56517;SDS011;42419;48.760;2.322;2023-08-21T12:09:57;5.80;;;1.90;;
56517;SDS011;42419;48.760;2.322;2023-08-21T12:12:23;4.27;;;1.90;;
56517;SDS011;42419;48.760;2.322;2023-08-21T12:14:51;4.30;;;2.70;;
56517;SDS011;42419;48.760;2.322;2023-08-21T12:17:17;3.03;;;1.87;;
56517;SDS011;42419;48.760;2.322;2023-08-21T12:19:42;5.23;;;1.97;;
56517;SDS011;42419;48.760;2.322;2023-08-21T12:22:08;4.53;;;2.10;;
56517;SDS011;42419;48.760;2.322;2023-08-21T12:24:34;3.40;;;2.10;;
56517;SDS011;42419;48.760;2.322;2023-08-21T12:26:59;3.53;;;2.00;;
56517;SDS011;42419;48.760;2.322;2023-08-21T12:29:24;3.27;;;2.00;;
56517;SDS011;42419;48.760;2.322;2023-08-21T12:31:50;3.80;;;1.90;;
56517;SDS011;42419;48.760;2.322;2023-08-21T12:34:15;3.90;;;1.77;;
56517;SDS011;42419;48.760;2.322;2023-08-21T12:36:40;3.27;;;1.87;;
56517;SDS011;42419;48.760;2.322;2023-08-21T12:39:06;2.43;;;1.57;;
56517;SDS011;42419;48.760;2.322;2023-08-21T12:41:31;3.07;;;2.20;;
56517;SDS011;42419;48.760;2.322;2023-08-21T12:44:01;3.20;;;2.10;;
56517;SDS011;42419;48.760;2.322;2023-08-21T12:46:28;2.53;;;1.60;;
56517;SDS011;42419;48.760;2.322;2023-08-21T12:48:54;2.83;;;1.60;;
56517;SDS011;42419;48.760;2.322;2023-08-21T12:51:20;2.33;;;1.60;;
56517;SDS011;42419;48.760;2.322;2023-08-21T12:53:46;1.87;;;1.50;;
56517;SDS011;42419;48.760;2.322;2023-08-21T12:56:11;3.50;;;1.80;;
56517;SDS011;42419;48.760;2.322;2023-08-21T12:58:37;4.13;;;1.80;;
56517;SDS011;42419;48.760;2.322;2023-08-21T13:01:02;2.73;;;1.90;;
56517;SDS011;42419;48.760;2.322;2023-08-21T13:03:30;3.00;;;1.50;;
56517;SDS011;42419;48.760;2.322;2023-08-21T13:05:57;2.10;;;1.60;;
56517;SDS011;42419;48.760;2.322;2023-08-21T13:08:22;2.33;;;1.70;;
56517;SDS011;42419;48.760;2.322;2023-08-21T13:10:48;2.07;;;1.70;;
56517;SDS011;42419;48.760;2.322;2023-08-21T13:13:13;2.47;;;1.73;;
56517;SDS011;42419;48.760;2.322;2023-08-21T13:15:38;3.03;;;1.60;;
56517;SDS011;42419;48.760;2.322;2023-08-21T13:18:04;2.23;;;1.57;;
56517;SDS011;42419;48.760;2.322;2023-08-21T13:20:29;2.40;;;1.40;;
56517;SDS011;42419;48.760;2.322;2023-08-21T13:22:55;2.77;;;1.47;;
56517;SDS011;42419;48.760;2.322;2023-08-21T13:25:23;2.90;;;1.80;;
56517;SDS011;42419;48.760;2.322;2023-08-21T13:27:51;3.20;;;2.00;;
56517;SDS011;42419;48.760;2.322;2023-08-21T13:30:17;2.67;;;1.53;;
56517;SDS011;42419;48.760;2.322;2023-08-21T13:32:43;4.20;;;2.37;;
56517;SDS011;42419;48.760;2.322;2023-08-21T13:35:09;1.90;;;1.70;;
56517;SDS011;42419;48.760;2.322;2023-08-21T13:37:35;2.03;;;1.53;;
56517;SDS011;42419;48.760;2.322;2023-08-21T13:40:01;2.60;;;1.47;;
56517;SDS011;42419;48.760;2.322;2023-08-21T13:42:34;2.47;;;1.60;;
56517;SDS011;42419;48.760;2.322;2023-08-21T13:45:02;2.43;;;1.67;;
56517;SDS011;42419;48.760;2.322;2023-08-21T13:47:28;2.03;;;1.77;;
56517;SDS011;42419;48.760;2.322;2023-08-21T13:49:53;2.77;;;1.70;;
56517;SDS011;42419;48.760;2.322;2023-08-21T13:52:18;1.83;;;1.57;;
56517;SDS011;42419;48.760;2.322;2023-08-21T13:54:44;2.50;;;1.83;;
56517;SDS011;42419;48.760;2.322;2023-08-21T13:57:09;2.77;;;1.77;;
56517;SDS011;42419;48.760;2.322;2023-08-21T13:59:34;2.37;;;1.60;;
56517;SDS011;42419;48.760;2.322;2023-08-21T14:02:00;2.13;;;1.60;;
56517;SDS011;42419;48.760;2.322;2023-08-21T14:04:25;2.63;;;1.60;;
56517;SDS011;42419;48.760;2.322;2023-08-21T14:06:50;2.17;;;1.63;;
56517;SDS011;42419;48.760;2.322;2023-08-21T14:09:15;2.60;;;1.50;;
56517;SDS011;42419;48.760;2.322;2023-08-21T14:11:41;2.57;;;1.67;;
56517;SDS011;42419;48.760;2.322;2023-08-21T14:14:08;2.83;;;1.77;;
56517;SDS011;42419;48.760;2.322;2023-08-21T14:16:33;2.57;;;1.40;;
56517;SDS011;42419;48.760;2.322;2023-08-21T14:18:59;1.93;;;1.63;;
56517;SDS011;42419;48.760;2.322;2023-08-21T14:21:24;2.53;;;1.80;;
56517;SDS011;42419;48.760;2.322;2023-08-21T14:23:49;1.93;;;1.60;;
56517;SDS011;42419;48.760;2.322;2023-08-21T14:26:15;1.60;;;1.50;;
56517;SDS011;42419;48.760;2.322;2023-08-21T14:28:40;2.50;;;1.43;;
56517;SDS011;42419;48.760;2.322;2023-08-21T14:31:05;3.33;;;1.83;;
56517;SDS011;42419;48.760;2.322;2023-08-21T14:33:30;1.93;;;1.40;;
56517;SDS011;42419;48.760;2.322;2023-08-21T14:35:56;1.83;;;1.50;;
56517;SDS011;42419;48.760;2.322;2023-08-21T14:38:21;1.77;;;1.20;;
56517;SDS011;42419;48.760;2.322;2023-08-21T14:40:47;5.30;;;1.83;;
56517;SDS011;42419;48.760;2.322;2023-08-21T14:43:12;3.47;;;1.90;;
56517;SDS011;42419;48.760;2.322;2023-08-21T14:45:38;2.00;;;1.70;;
56517;SDS011;42419;48.760;2.322;2023-08-21T14:48:03;4.23;;;1.67;;
56517;SDS011;42419;48.760;2.322;2023-08-21T14:50:29;2.70;;;1.97;;